sensor_id;sensor_type;location;lat;lon;timestamp;P1;durP1;ratioP1;P2;durP2;ratioP2
19883;SDS011;10104;50.732;10.174;2024-03-06T00:02:20;29.67;;;15.57;;
19883;SDS011;10104;50.732;10.174;2024-03-06T00:05:00;27.77;;;16.17;;
19883;SDS011;10104;50.732;10.174;2024-03-06T00:07:41;29.07;;;16.20;;
19883;SDS011;10104;50.732;10.174;2024-03-06T00:10:21;26.87;;;15.77;;
19883;SDS011;10104;50.732;10.174;2024-03-06T00:13:01;29.77;;;16.00;;
19883;SDS011;10104;50.732;10.174;2024-03-06T00:15:41;28.10;;;15.73;;
19883;SDS011;10104;50.732;10.174;2024-03-06T00:18:21;29.37;;;16.37;;
19883;SDS011;10104;50.732;10.174;2024-03-06T00:21:01;25.67;;;15.07;;
19883;SDS011;10104;50.732;10.174;2024-03-06T00:23:42;27.97;;;16.30;;
19883;SDS011;10104;50.732;10.174;2024-03-06T00:26:22;30.03;;;16.20;;
19883;SDS011;10104;50.732;10.174;2024-03-06T00:29:02;29.67;;;15.83;;
19883;SDS011;10104;50.732;10.174;2024-03-06T00:31:43;29.33;;;17.17;;
19883;SDS011;10104;50.732;10.174;2024-03-06T00:34:24;30.73;;;17.60;;
19883;SDS011;10104;50.732;10.174;2024-03-06T00:37:04;31.27;;;17.73;;
19883;SDS011;10104;50.732;10.174;2024-03-06T00:39:44;32.53;;;16.77;;
19883;SDS011;10104;50.732;10.174;2024-03-06T00:42:24;30.30;;;16.87;;
19883;SDS011;10104;50.732;10.174;2024-03-06T00:45:04;36.97;;;17.97;;
19883;SDS011;10104;50.732;10.174;2024-03-06T00:47:45;33.07;;;16.53;;
19883;SDS011;10104;50.732;10.174;2024-03-06T00:50:25;37.20;;;18.53;;
19883;SDS011;10104;50.732;10.174;2024-03-06T00:53:06;38.57;;;19.10;;
19883;SDS011;10104;50.732;10.174;2024-03-06T00:55:46;38.40;;;19.20;;
19883;SDS011;10104;50.732;10.174;2024-03-06T00:58:27;35.20;;;19.20;;
19883;SDS011;10104;50.732;10.174;2024-03-06T01:01:07;39.57;;;19.50;;
19883;SDS011;10104;50.732;10.174;2024-03-06T01:03:47;39.10;;;19.47;;
19883;SDS011;10104;50.732;10.174;2024-03-06T01:06:27;39.80;;;19.30;;
19883;SDS011;10104;50.732;10.174;2024-03-06T01:09:07;42.67;;;19.07;;
19883;SDS011;10104;50.732;10.174;2024-03-06T01:11:48;41.53;;;19.50;;
19883;SDS011;10104;50.732;10.174;2024-03-06T01:14:28;41.80;;;20.27;;
19883;SDS011;10104;50.732;10.174;2024-03-06T01:17:09;40.33;;;20.23;;
19883;SDS011;10104;50.732;10.174;2024-03-06T01:19:49;43.37;;;21.10;;
19883;SDS011;10104;50.732;10.174;2024-03-06T01:22:30;43.67;;;21.10;;
19883;SDS011;10104;50.732;10.174;2024-03-06T01:25:10;42.13;;;20.97;;
19883;SDS011;10104;50.732;10.174;2024-03-06T01:27:50;44.43;;;22.33;;
19883;SDS011;10104;50.732;10.174;2024-03-06T01:30:31;40.80;;;20.90;;
19883;SDS011;10104;50.732;10.174;2024-03-06T01:33:11;43.53;;;22.37;;
19883;SDS011;10104;50.732;10.174;2024-03-06T01:35:52;44.00;;;22.90;;
19883;SDS011;10104;50.732;10.174;2024-03-06T01:38:32;44.10;;;22.60;;
19883;SDS011;10104;50.732;10.174;2024-03-06T01:41:12;42.97;;;22.00;;
19883;SDS011;10104;50.732;10.174;2024-03-06T01:43:54;46.60;;;22.97;;
19883;SDS011;10104;50.732;10.174;2024-03-06T01:46:34;44.33;;;22.30;;
19883;SDS011;10104;50.732;10.174;2024-03-06T01:49:14;43.63;;;22.00;;
19883;SDS011;10104;50.732;10.174;2024-03-06T01:52:07;46.80;;;22.97;;
19883;SDS011;10104;50.732;10.174;2024-03-06T01:54:51;45.97;;;22.23;;
19883;SDS011;10104;50.732;10.174;2024-03-06T01:57:32;48.23;;;24.20;;
19883;SDS011;10104;50.732;10.174;2024-03-06T02:00:14;47.83;;;24.20;;
19883;SDS011;10104;50.732;10.174;2024-03-06T02:02:56;46.30;;;23.97;;
19883;SDS011;10104;50.732;10.174;2024-03-06T02:05:36;49.47;;;25.00;;
19883;SDS011;10104;50.732;10.174;2024-03-06T02:08:16;47.87;;;23.90;;
19883;SDS011;10104;50.732;10.174;2024-03-06T02:10:57;45.00;;;23.23;;
19883;SDS011;10104;50.732;10.174;2024-03-06T02:13:40;51.87;;;24.37;;
19883;SDS011;10104;50.732;10.174;2024-03-06T02:16:21;47.40;;;25.53;;
19883;SDS011;10104;50.732;10.174;2024-03-06T02:19:01;50.23;;;24.77;;
19883;SDS011;10104;50.732;10.174;2024-03-06T02:21:41;52.13;;;25.37;;
19883;SDS011;10104;50.732;10.174;2024-03-06T02:24:21;50.30;;;25.03;;
19883;SDS011;10104;50.732;10.174;2024-03-06T02:27:01;50.90;;;25.50;;
19883;SDS011;10104;50.732;10.174;2024-03-06T02:29:42;50.87;;;24.93;;
19883;SDS011;10104;50.732;10.174;2024-03-06T02:32:23;56.40;;;26.70;;
19883;SDS011;10104;50.732;10.174;2024-03-06T02:35:05;52.80;;;25.63;;
19883;SDS011;10104;50.732;10.174;2024-03-06T02:37:48;52.87;;;24.33;;
19883;SDS011;10104;50.732;10.174;2024-03-06T02:40:28;53.00;;;25.70;;
19883;SDS011;10104;50.732;10.174;2024-03-06T02:43:08;59.67;;;25.17;;
19883;SDS011;10104;50.732;10.174;2024-03-06T02:45:48;55.77;;;26.30;;
19883;SDS011;10104;50.732;10.174;2024-03-06T02:48:29;57.80;;;26.87;;
19883;SDS011;10104;50.732;10.174;2024-03-06T02:51:09;55.10;;;26.73;;
19883;SDS011;10104;50.732;10.174;2024-03-06T02:53:49;54.97;;;26.97;;
19883;SDS011;10104;50.732;10.174;2024-03-06T02:56:32;55.43;;;26.70;;
19883;SDS011;10104;50.732;10.174;2024-03-06T02:59:13;56.77;;;26.90;;
19883;SDS011;10104;50.732;10.174;2024-03-06T03:01:54;57.50;;;27.17;;
19883;SDS011;10104;50.732;10.174;2024-03-06T03:04:34;60.67;;;27.30;;
19883;SDS011;10104;50.732;10.174;2024-03-06T03:07:14;57.80;;;26.40;;
19883;SDS011;10104;50.732;10.174;2024-03-06T03:09:54;63.10;;;29.57;;
19883;SDS011;10104;50.732;10.174;2024-03-06T03:12:34;59.20;;;28.13;;
19883;SDS011;10104;50.732;10.174;2024-03-06T03:15:15;62.23;;;28.30;;
19883;SDS011;10104;50.732;10.174;2024-03-06T03:17:55;59.97;;;28.40;;
19883;SDS011;10104;50.732;10.174;2024-03-06T03:20:35;63.67;;;27.70;;
19883;SDS011;10104;50.732;10.174;2024-03-06T03:23:16;65.60;;;29.10;;
19883;SDS011;10104;50.732;10.174;2024-03-06T03:26:02;66.37;;;30.20;;
19883;SDS011;10104;50.732;10.174;2024-03-06T03:28:44;65.83;;;30.00;;
19883;SDS011;10104;50.732;10.174;2024-03-06T03:31:24;69.10;;;30.60;;
19883;SDS011;10104;50.732;10.174;2024-03-06T03:34:05;77.63;;;32.10;;
19883;SDS011;10104;50.732;10.174;2024-03-06T03:36:45;79.77;;;32.03;;
19883;SDS011;10104;50.732;10.174;2024-03-06T03:39:25;78.07;;;32.90;;
19883;SDS011;10104;50.732;10.174;2024-03-06T03:42:07;77.60;;;32.23;;
19883;SDS011;10104;50.732;10.174;2024-03-06T03:44:47;77.13;;;31.07;;
19883;SDS011;10104;50.732;10.174;2024-03-06T03:47:27;71.83;;;31.73;;
19883;SDS011;10104;50.732;10.174;2024-03-06T03:50:07;73.33;;;32.50;;
19883;SDS011;10104;50.732;10.174;2024-03-06T03:52:50;76.10;;;32.67;;
19883;SDS011;10104;50.732;10.174;2024-03-06T03:55:30;79.37;;;32.30;;
19883;SDS011;10104;50.732;10.174;2024-03-06T03:58:11;75.73;;;31.93;;
19883;SDS011;10104;50.732;10.174;2024-03-06T04:00:51;73.37;;;32.07;;
19883;SDS011;10104;50.732;10.174;2024-03-06T04:03:35;66.03;;;30.87;;
19883;SDS011;10104;50.732;10.174;2024-03-06T04:06:16;65.17;;;31.93;;
19883;SDS011;10104;50.732;10.174;2024-03-06T04:08:57;68.27;;;31.27;;
19883;SDS011;10104;50.732;10.174;2024-03-06T04:11:37;79.17;;;32.70;;
19883;SDS011;10104;50.732;10.174;2024-03-06T04:14:18;74.00;;;33.23;;
19883;SDS011;10104;50.732;10.174;2024-03-06T04:16:59;72.73;;;31.77;;
19883;SDS011;10104;50.732;10.174;2024-03-06T04:19:39;81.73;;;33.07;;
19883;SDS011;10104;50.732;10.174;2024-03-06T04:22:19;79.57;;;34.07;;
19883;SDS011;10104;50.732;10.174;2024-03-06T04:24:59;75.73;;;33.67;;
19883;SDS011;10104;50.732;10.174;2024-03-06T04:27:39;79.27;;;33.23;;
19883;SDS011;10104;50.732;10.174;2024-03-06T04:30:19;72.67;;;31.90;;
19883;SDS011;10104;50.732;10.174;2024-03-06T04:32:59;69.40;;;32.23;;
19883;SDS011;10104;50.732;10.174;2024-03-06T04:35:41;72.07;;;32.50;;
19883;SDS011;10104;50.732;10.174;2024-03-06T04:38:21;72.10;;;33.33;;
19883;SDS011;10104;50.732;10.174;2024-03-06T04:41:01;63.40;;;31.87;;
19883;SDS011;10104;50.732;10.174;2024-03-06T04:43:41;70.60;;;32.33;;
19883;SDS011;10104;50.732;10.174;2024-03-06T04:46:22;68.80;;;31.07;;
19883;SDS011;10104;50.732;10.174;2024-03-06T04:49:03;68.13;;;31.60;;
19883;SDS011;10104;50.732;10.174;2024-03-06T04:51:43;64.83;;;30.97;;
19883;SDS011;10104;50.732;10.174;2024-03-06T04:54:23;67.27;;;30.37;;
19883;SDS011;10104;50.732;10.174;2024-03-06T04:57:03;67.60;;;31.67;;
19883;SDS011;10104;50.732;10.174;2024-03-06T04:59:44;65.50;;;32.10;;
19883;SDS011;10104;50.732;10.174;2024-03-06T05:02:24;64.07;;;31.57;;
19883;SDS011;10104;50.732;10.174;2024-03-06T05:05:06;68.20;;;32.13;;
19883;SDS011;10104;50.732;10.174;2024-03-06T05:08:05;69.30;;;30.73;;
19883;SDS011;10104;50.732;10.174;2024-03-06T05:11:04;65.57;;;32.43;;
19883;SDS011;10104;50.732;10.174;2024-03-06T05:14:01;70.67;;;31.47;;
19883;SDS011;10104;50.732;10.174;2024-03-06T05:17:00;61.90;;;30.00;;
19883;SDS011;10104;50.732;10.174;2024-03-06T05:19:58;60.27;;;29.60;;
19883;SDS011;10104;50.732;10.174;2024-03-06T05:22:57;63.27;;;29.47;;
19883;SDS011;10104;50.732;10.174;2024-03-06T05:25:55;64.83;;;31.30;;
19883;SDS011;10104;50.732;10.174;2024-03-06T05:28:53;62.07;;;30.23;;
19883;SDS011;10104;50.732;10.174;2024-03-06T05:31:51;66.60;;;31.40;;
19883;SDS011;10104;50.732;10.174;2024-03-06T05:34:49;65.27;;;30.63;;
19883;SDS011;10104;50.732;10.174;2024-03-06T05:37:47;64.27;;;30.10;;
19883;SDS011;10104;50.732;10.174;2024-03-06T05:40:45;62.77;;;30.63;;
19883;SDS011;10104;50.732;10.174;2024-03-06T05:43:43;64.40;;;30.90;;
19883;SDS011;10104;50.732;10.174;2024-03-06T05:46:41;61.73;;;30.00;;
19883;SDS011;10104;50.732;10.174;2024-03-06T05:49:39;57.93;;;29.37;;
19883;SDS011;10104;50.732;10.174;2024-03-06T05:52:37;63.43;;;30.43;;
19883;SDS011;10104;50.732;10.174;2024-03-06T05:55:34;55.57;;;28.20;;
19883;SDS011;10104;50.732;10.174;2024-03-06T05:58:32;54.77;;;29.40;;
19883;SDS011;10104;50.732;10.174;2024-03-06T06:01:16;56.10;;;28.77;;
19883;SDS011;10104;50.732;10.174;2024-03-06T06:04:01;55.23;;;28.30;;
19883;SDS011;10104;50.732;10.174;2024-03-06T06:06:45;57.40;;;28.40;;
19883;SDS011;10104;50.732;10.174;2024-03-06T06:09:25;65.70;;;30.13;;
19883;SDS011;10104;50.732;10.174;2024-03-06T06:12:06;68.30;;;31.60;;
19883;SDS011;10104;50.732;10.174;2024-03-06T06:14:46;64.73;;;32.20;;
19883;SDS011;10104;50.732;10.174;2024-03-06T06:17:26;70.83;;;33.23;;
19883;SDS011;10104;50.732;10.174;2024-03-06T06:20:07;69.43;;;34.50;;
19883;SDS011;10104;50.732;10.174;2024-03-06T06:22:49;70.07;;;35.07;;
19883;SDS011;10104;50.732;10.174;2024-03-06T06:25:29;78.50;;;34.50;;
19883;SDS011;10104;50.732;10.174;2024-03-06T06:28:10;76.03;;;35.23;;
19883;SDS011;10104;50.732;10.174;2024-03-06T06:30:50;74.17;;;33.63;;
19883;SDS011;10104;50.732;10.174;2024-03-06T06:33:32;79.63;;;34.73;;
19883;SDS011;10104;50.732;10.174;2024-03-06T06:36:12;76.03;;;32.53;;
19883;SDS011;10104;50.732;10.174;2024-03-06T06:38:52;75.63;;;34.53;;
19883;SDS011;10104;50.732;10.174;2024-03-06T06:41:33;71.33;;;33.83;;
19883;SDS011;10104;50.732;10.174;2024-03-06T06:44:13;75.33;;;35.30;;
19883;SDS011;10104;50.732;10.174;2024-03-06T06:46:54;74.43;;;34.57;;
19883;SDS011;10104;50.732;10.174;2024-03-06T06:49:34;75.00;;;33.77;;
19883;SDS011;10104;50.732;10.174;2024-03-06T06:52:15;76.13;;;33.90;;
19883;SDS011;10104;50.732;10.174;2024-03-06T06:54:55;72.20;;;35.47;;
19883;SDS011;10104;50.732;10.174;2024-03-06T06:57:35;79.20;;;35.47;;
19883;SDS011;10104;50.732;10.174;2024-03-06T07:00:15;77.93;;;35.83;;
19883;SDS011;10104;50.732;10.174;2024-03-06T07:02:58;89.83;;;36.87;;
19883;SDS011;10104;50.732;10.174;2024-03-06T07:05:38;78.23;;;35.07;;
19883;SDS011;10104;50.732;10.174;2024-03-06T07:08:19;82.80;;;37.07;;
19883;SDS011;10104;50.732;10.174;2024-03-06T07:10:59;81.37;;;36.57;;
19883;SDS011;10104;50.732;10.174;2024-03-06T07:13:39;86.60;;;35.87;;
19883;SDS011;10104;50.732;10.174;2024-03-06T07:16:20;77.87;;;35.83;;
19883;SDS011;10104;50.732;10.174;2024-03-06T07:19:00;76.33;;;37.13;;
19883;SDS011;10104;50.732;10.174;2024-03-06T07:21:40;78.73;;;35.43;;
19883;SDS011;10104;50.732;10.174;2024-03-06T07:24:20;77.10;;;36.60;;
19883;SDS011;10104;50.732;10.174;2024-03-06T07:27:00;75.83;;;34.67;;
19883;SDS011;10104;50.732;10.174;2024-03-06T07:29:43;80.27;;;36.97;;
19883;SDS011;10104;50.732;10.174;2024-03-06T07:32:23;78.13;;;35.77;;
19883;SDS011;10104;50.732;10.174;2024-03-06T07:35:04;74.13;;;33.33;;
19883;SDS011;10104;50.732;10.174;2024-03-06T07:37:46;77.63;;;36.33;;
19883;SDS011;10104;50.732;10.174;2024-03-06T07:40:26;78.90;;;37.77;;
19883;SDS011;10104;50.732;10.174;2024-03-06T07:43:07;75.30;;;36.33;;
19883;SDS011;10104;50.732;10.174;2024-03-06T07:45:47;79.37;;;37.93;;
19883;SDS011;10104;50.732;10.174;2024-03-06T07:48:29;89.73;;;41.40;;
19883;SDS011;10104;50.732;10.174;2024-03-06T07:51:09;77.83;;;36.97;;
19883;SDS011;10104;50.732;10.174;2024-03-06T07:53:49;75.80;;;37.00;;
19883;SDS011;10104;50.732;10.174;2024-03-06T07:56:30;72.43;;;36.03;;
19883;SDS011;10104;50.732;10.174;2024-03-06T07:59:11;71.53;;;35.80;;
19883;SDS011;10104;50.732;10.174;2024-03-06T08:01:52;73.13;;;36.27;;
19883;SDS011;10104;50.732;10.174;2024-03-06T08:04:33;73.23;;;35.57;;
19883;SDS011;10104;50.732;10.174;2024-03-06T08:07:13;70.57;;;36.50;;
19883;SDS011;10104;50.732;10.174;2024-03-06T08:09:53;73.07;;;35.63;;
19883;SDS011;10104;50.732;10.174;2024-03-06T08:12:34;66.07;;;33.63;;
19883;SDS011;10104;50.732;10.174;2024-03-06T08:15:14;65.97;;;33.27;;
19883;SDS011;10104;50.732;10.174;2024-03-06T08:17:54;64.53;;;33.43;;
19883;SDS011;10104;50.732;10.174;2024-03-06T08:20:34;67.83;;;34.73;;
19883;SDS011;10104;50.732;10.174;2024-03-06T08:23:15;66.30;;;33.23;;
19883;SDS011;10104;50.732;10.174;2024-03-06T08:25:55;64.07;;;31.60;;
19883;SDS011;10104;50.732;10.174;2024-03-06T08:28:35;65.53;;;33.07;;
19883;SDS011;10104;50.732;10.174;2024-03-06T08:31:16;59.47;;;31.30;;
19883;SDS011;10104;50.732;10.174;2024-03-06T08:33:56;67.20;;;32.93;;
19883;SDS011;10104;50.732;10.174;2024-03-06T08:36:37;61.37;;;32.43;;
19883;SDS011;10104;50.732;10.174;2024-03-06T08:39:17;60.33;;;32.87;;
19883;SDS011;10104;50.732;10.174;2024-03-06T08:41:57;55.23;;;30.03;;
19883;SDS011;10104;50.732;10.174;2024-03-06T08:44:37;60.70;;;32.20;;
19883;SDS011;10104;50.732;10.174;2024-03-06T08:47:18;64.77;;;32.53;;
19883;SDS011;10104;50.732;10.174;2024-03-06T08:49:58;64.60;;;32.57;;
19883;SDS011;10104;50.732;10.174;2024-03-06T08:52:38;63.43;;;34.13;;
19883;SDS011;10104;50.732;10.174;2024-03-06T08:55:19;59.23;;;31.50;;
19883;SDS011;10104;50.732;10.174;2024-03-06T08:57:59;60.03;;;30.90;;
19883;SDS011;10104;50.732;10.174;2024-03-06T09:00:41;59.50;;;31.43;;
19883;SDS011;10104;50.732;10.174;2024-03-06T09:03:22;60.73;;;32.73;;
19883;SDS011;10104;50.732;10.174;2024-03-06T09:06:03;66.77;;;34.17;;
19883;SDS011;10104;50.732;10.174;2024-03-06T09:08:43;62.77;;;31.33;;
19883;SDS011;10104;50.732;10.174;2024-03-06T09:11:23;61.47;;;30.83;;
19883;SDS011;10104;50.732;10.174;2024-03-06T09:14:03;61.97;;;32.20;;
19883;SDS011;10104;50.732;10.174;2024-03-06T09:16:44;61.80;;;32.77;;
19883;SDS011;10104;50.732;10.174;2024-03-06T09:19:25;59.90;;;33.70;;
19883;SDS011;10104;50.732;10.174;2024-03-06T09:22:05;62.87;;;31.67;;
19883;SDS011;10104;50.732;10.174;2024-03-06T09:24:45;58.40;;;31.63;;
19883;SDS011;10104;50.732;10.174;2024-03-06T09:27:26;59.73;;;32.10;;
19883;SDS011;10104;50.732;10.174;2024-03-06T09:30:07;61.73;;;32.77;;
19883;SDS011;10104;50.732;10.174;2024-03-06T09:32:49;59.33;;;32.07;;
19883;SDS011;10104;50.732;10.174;2024-03-06T09:35:29;54.97;;;31.33;;
19883;SDS011;10104;50.732;10.174;2024-03-06T09:38:12;80.53;;;44.23;;
19883;SDS011;10104;50.732;10.174;2024-03-06T09:40:59;51.50;;;30.00;;
19883;SDS011;10104;50.732;10.174;2024-03-06T09:43:39;59.77;;;32.50;;
19883;SDS011;10104;50.732;10.174;2024-03-06T09:46:21;53.30;;;29.20;;
19883;SDS011;10104;50.732;10.174;2024-03-06T09:49:02;53.07;;;30.47;;
19883;SDS011;10104;50.732;10.174;2024-03-06T09:51:45;49.70;;;28.87;;
19883;SDS011;10104;50.732;10.174;2024-03-06T09:54:28;59.60;;;31.97;;
19883;SDS011;10104;50.732;10.174;2024-03-06T09:57:09;69.50;;;38.37;;
19883;SDS011;10104;50.732;10.174;2024-03-06T09:59:49;61.17;;;35.60;;
19883;SDS011;10104;50.732;10.174;2024-03-06T10:02:31;58.67;;;32.60;;
19883;SDS011;10104;50.732;10.174;2024-03-06T10:05:21;51.07;;;30.47;;
19883;SDS011;10104;50.732;10.174;2024-03-06T10:08:03;53.37;;;29.03;;
19883;SDS011;10104;50.732;10.174;2024-03-06T10:10:44;51.53;;;28.40;;
19883;SDS011;10104;50.732;10.174;2024-03-06T10:13:26;53.40;;;27.87;;
19883;SDS011;10104;50.732;10.174;2024-03-06T10:16:07;50.07;;;28.93;;
19883;SDS011;10104;50.732;10.174;2024-03-06T10:18:51;47.17;;;27.87;;
19883;SDS011;10104;50.732;10.174;2024-03-06T10:21:32;47.77;;;27.67;;
19883;SDS011;10104;50.732;10.174;2024-03-06T10:24:12;46.30;;;27.77;;
19883;SDS011;10104;50.732;10.174;2024-03-06T10:26:52;48.37;;;27.43;;
19883;SDS011;10104;50.732;10.174;2024-03-06T10:29:36;44.80;;;26.23;;
19883;SDS011;10104;50.732;10.174;2024-03-06T10:32:16;48.60;;;27.40;;
19883;SDS011;10104;50.732;10.174;2024-03-06T10:34:59;48.30;;;27.43;;
19883;SDS011;10104;50.732;10.174;2024-03-06T10:37:39;50.70;;;27.37;;
19883;SDS011;10104;50.732;10.174;2024-03-06T10:40:22;49.40;;;26.40;;
19883;SDS011;10104;50.732;10.174;2024-03-06T10:43:03;42.63;;;25.30;;
19883;SDS011;10104;50.732;10.174;2024-03-06T10:48:28;41.93;;;24.73;;
19883;SDS011;10104;50.732;10.174;2024-03-06T10:51:09;39.83;;;24.53;;
19883;SDS011;10104;50.732;10.174;2024-03-06T10:53:51;46.50;;;26.63;;
19883;SDS011;10104;50.732;10.174;2024-03-06T10:56:33;44.50;;;24.97;;
19883;SDS011;10104;50.732;10.174;2024-03-06T10:59:13;40.50;;;24.13;;
19883;SDS011;10104;50.732;10.174;2024-03-06T11:01:56;35.13;;;21.90;;
19883;SDS011;10104;50.732;10.174;2024-03-06T11:04:37;38.50;;;23.17;;
19883;SDS011;10104;50.732;10.174;2024-03-06T11:07:20;40.57;;;22.47;;
19883;SDS011;10104;50.732;10.174;2024-03-06T11:10:01;37.40;;;22.53;;
19883;SDS011;10104;50.732;10.174;2024-03-06T11:12:41;53.30;;;25.67;;
19883;SDS011;10104;50.732;10.174;2024-03-06T11:15:28;35.87;;;22.27;;
19883;SDS011;10104;50.732;10.174;2024-03-06T11:26:59;42.13;;;25.50;;
19883;SDS011;10104;50.732;10.174;2024-03-06T11:32:57;47.43;;;25.80;;
19883;SDS011;10104;50.732;10.174;2024-03-06T11:35:42;46.40;;;26.50;;
19883;SDS011;10104;50.732;10.174;2024-03-06T11:38:28;43.27;;;26.40;;
19883;SDS011;10104;50.732;10.174;2024-03-06T11:41:09;49.20;;;26.37;;
19883;SDS011;10104;50.732;10.174;2024-03-06T11:43:50;47.90;;;28.13;;
19883;SDS011;10104;50.732;10.174;2024-03-06T11:46:45;47.10;;;28.17;;
19883;SDS011;10104;50.732;10.174;2024-03-06T11:49:33;44.50;;;28.17;;
19883;SDS011;10104;50.732;10.174;2024-03-06T11:52:14;52.13;;;29.60;;
19883;SDS011;10104;50.732;10.174;2024-03-06T11:54:54;45.03;;;27.60;;
19883;SDS011;10104;50.732;10.174;2024-03-06T11:57:34;47.10;;;26.67;;
19883;SDS011;10104;50.732;10.174;2024-03-06T12:00:15;46.67;;;27.03;;
19883;SDS011;10104;50.732;10.174;2024-03-06T12:02:55;43.47;;;26.47;;
19883;SDS011;10104;50.732;10.174;2024-03-06T12:05:35;44.90;;;26.67;;
19883;SDS011;10104;50.732;10.174;2024-03-06T12:08:17;45.00;;;25.90;;
19883;SDS011;10104;50.732;10.174;2024-03-06T12:10:57;43.43;;;26.60;;
19883;SDS011;10104;50.732;10.174;2024-03-06T12:13:38;45.73;;;25.87;;
19883;SDS011;10104;50.732;10.174;2024-03-06T12:16:18;43.87;;;25.40;;
19883;SDS011;10104;50.732;10.174;2024-03-06T12:18:58;45.77;;;26.67;;
19883;SDS011;10104;50.732;10.174;2024-03-06T12:21:39;43.10;;;26.27;;
19883;SDS011;10104;50.732;10.174;2024-03-06T12:24:19;43.80;;;25.83;;
19883;SDS011;10104;50.732;10.174;2024-03-06T12:27:01;46.80;;;28.07;;
19883;SDS011;10104;50.732;10.174;2024-03-06T12:29:44;48.00;;;26.63;;
19883;SDS011;10104;50.732;10.174;2024-03-06T12:32:26;47.33;;;28.97;;
19883;SDS011;10104;50.732;10.174;2024-03-06T12:35:10;48.20;;;29.67;;
19883;SDS011;10104;50.732;10.174;2024-03-06T12:37:50;209.87;;;107.20;;
19883;SDS011;10104;50.732;10.174;2024-03-06T12:40:30;61.67;;;39.93;;
19883;SDS011;10104;50.732;10.174;2024-03-06T12:43:10;57.97;;;34.37;;
19883;SDS011;10104;50.732;10.174;2024-03-06T12:45:51;51.27;;;30.83;;
19883;SDS011;10104;50.732;10.174;2024-03-06T12:48:34;52.20;;;30.13;;
19883;SDS011;10104;50.732;10.174;2024-03-06T12:51:14;53.73;;;31.07;;
19883;SDS011;10104;50.732;10.174;2024-03-06T12:53:54;48.57;;;31.10;;
19883;SDS011;10104;50.732;10.174;2024-03-06T12:56:35;46.97;;;29.43;;
19883;SDS011;10104;50.732;10.174;2024-03-06T12:59:16;50.30;;;30.93;;
19883;SDS011;10104;50.732;10.174;2024-03-06T13:01:56;49.13;;;31.17;;
19883;SDS011;10104;50.732;10.174;2024-03-06T13:04:37;48.17;;;29.70;;
19883;SDS011;10104;50.732;10.174;2024-03-06T13:07:17;48.93;;;29.47;;
19883;SDS011;10104;50.732;10.174;2024-03-06T13:09:57;48.40;;;28.53;;
19883;SDS011;10104;50.732;10.174;2024-03-06T13:12:41;49.13;;;30.63;;
19883;SDS011;10104;50.732;10.174;2024-03-06T13:15:21;45.27;;;29.17;;
19883;SDS011;10104;50.732;10.174;2024-03-06T13:18:02;48.53;;;29.33;;
19883;SDS011;10104;50.732;10.174;2024-03-06T13:20:44;48.93;;;29.93;;
19883;SDS011;10104;50.732;10.174;2024-03-06T13:23:24;45.37;;;29.73;;
19883;SDS011;10104;50.732;10.174;2024-03-06T13:26:04;48.03;;;28.37;;
19883;SDS011;10104;50.732;10.174;2024-03-06T13:28:45;45.77;;;28.23;;
19883;SDS011;10104;50.732;10.174;2024-03-06T13:31:26;44.63;;;28.27;;
19883;SDS011;10104;50.732;10.174;2024-03-06T13:34:06;44.03;;;27.03;;
19883;SDS011;10104;50.732;10.174;2024-03-06T13:36:47;45.63;;;27.87;;
19883;SDS011;10104;50.732;10.174;2024-03-06T13:39:27;44.90;;;27.33;;
19883;SDS011;10104;50.732;10.174;2024-03-06T13:42:07;40.60;;;26.10;;
19883;SDS011;10104;50.732;10.174;2024-03-06T13:44:48;40.93;;;26.30;;
19883;SDS011;10104;50.732;10.174;2024-03-06T13:47:28;42.97;;;27.40;;
19883;SDS011;10104;50.732;10.174;2024-03-06T13:50:09;47.10;;;27.80;;
19883;SDS011;10104;50.732;10.174;2024-03-06T13:52:50;41.37;;;27.27;;
19883;SDS011;10104;50.732;10.174;2024-03-06T13:55:30;39.87;;;25.67;;
19883;SDS011;10104;50.732;10.174;2024-03-06T13:58:13;44.87;;;26.67;;
19883;SDS011;10104;50.732;10.174;2024-03-06T14:00:53;42.17;;;25.73;;
19883;SDS011;10104;50.732;10.174;2024-03-06T14:03:33;39.03;;;25.00;;
19883;SDS011;10104;50.732;10.174;2024-03-06T14:06:14;40.43;;;25.23;;
19883;SDS011;10104;50.732;10.174;2024-03-06T14:08:54;39.27;;;25.20;;
19883;SDS011;10104;50.732;10.174;2024-03-06T14:11:35;39.60;;;26.27;;
19883;SDS011;10104;50.732;10.174;2024-03-06T14:14:15;43.27;;;26.73;;
19883;SDS011;10104;50.732;10.174;2024-03-06T14:16:55;47.47;;;26.40;;
19883;SDS011;10104;50.732;10.174;2024-03-06T14:19:36;41.40;;;26.77;;
19883;SDS011;10104;50.732;10.174;2024-03-06T14:22:16;37.60;;;23.63;;
19883;SDS011;10104;50.732;10.174;2024-03-06T14:24:56;37.67;;;23.93;;
19883;SDS011;10104;50.732;10.174;2024-03-06T14:27:37;37.03;;;23.57;;
19883;SDS011;10104;50.732;10.174;2024-03-06T14:30:17;37.37;;;24.30;;
19883;SDS011;10104;50.732;10.174;2024-03-06T14:32:59;39.20;;;25.73;;
19883;SDS011;10104;50.732;10.174;2024-03-06T14:35:40;39.23;;;25.30;;
19883;SDS011;10104;50.732;10.174;2024-03-06T14:38:21;39.63;;;26.37;;
19883;SDS011;10104;50.732;10.174;2024-03-06T14:41:02;43.40;;;27.43;;
19883;SDS011;10104;50.732;10.174;2024-03-06T14:43:46;42.30;;;26.90;;
19883;SDS011;10104;50.732;10.174;2024-03-06T14:46:26;57.87;;;34.87;;
19883;SDS011;10104;50.732;10.174;2024-03-06T14:49:07;35.93;;;23.87;;
19883;SDS011;10104;50.732;10.174;2024-03-06T14:51:47;36.80;;;24.20;;
19883;SDS011;10104;50.732;10.174;2024-03-06T14:54:28;47.43;;;29.87;;
19883;SDS011;10104;50.732;10.174;2024-03-06T14:57:08;36.77;;;24.80;;
19883;SDS011;10104;50.732;10.174;2024-03-06T14:59:48;43.87;;;27.90;;
19883;SDS011;10104;50.732;10.174;2024-03-06T15:02:29;56.77;;;36.07;;
19883;SDS011;10104;50.732;10.174;2024-03-06T15:05:10;44.63;;;27.70;;
19883;SDS011;10104;50.732;10.174;2024-03-06T15:07:52;57.93;;;34.53;;
19883;SDS011;10104;50.732;10.174;2024-03-06T15:10:32;91.47;;;49.33;;
19883;SDS011;10104;50.732;10.174;2024-03-06T15:13:12;47.30;;;28.03;;
19883;SDS011;10104;50.732;10.174;2024-03-06T15:15:55;51.53;;;31.07;;
19883;SDS011;10104;50.732;10.174;2024-03-06T15:18:35;43.07;;;24.90;;
19883;SDS011;10104;50.732;10.174;2024-03-06T15:21:16;34.93;;;24.17;;
19883;SDS011;10104;50.732;10.174;2024-03-06T15:23:57;89.73;;;46.83;;
19883;SDS011;10104;50.732;10.174;2024-03-06T15:26:37;38.70;;;25.63;;
19883;SDS011;10104;50.732;10.174;2024-03-06T15:29:18;44.00;;;27.77;;
19883;SDS011;10104;50.732;10.174;2024-03-06T15:31:58;41.53;;;26.67;;
19883;SDS011;10104;50.732;10.174;2024-03-06T15:34:39;40.23;;;26.40;;
19883;SDS011;10104;50.732;10.174;2024-03-06T15:37:19;33.17;;;21.97;;
19883;SDS011;10104;50.732;10.174;2024-03-06T15:40:01;31.90;;;21.50;;
19883;SDS011;10104;50.732;10.174;2024-03-06T15:42:43;35.27;;;20.50;;
19883;SDS011;10104;50.732;10.174;2024-03-06T15:45:23;33.07;;;22.23;;
19883;SDS011;10104;50.732;10.174;2024-03-06T15:48:04;30.87;;;21.43;;